Time;durP1;ratioP1;P1;durP2;ratioP2;P2;SDS_P1;SDS_P2;PMS_P1;PMS_P2;Temp;Humidity;BMP_temperature;BMP_pressure;BME280_temperature;BME280_humidity;BME280_pressure;Samples;Min_cycle;Max_cycle;Signal;HPM_P1;HPM_P2
2023/08/16 00:02:21;;;;;;;9.88;3.70;;;13.10;99.90;;;;;;4979670;28;20038;-83
2023/08/16 00:04:47;;;;;;;4.68;3.42;;;13.10;99.90;;;;;;4957525;28;20433;-83
2023/08/16 00:07:12;;;;;;;5.22;3.25;;;13.00;99.90;;;;;;4962037;28;20130;-83
2023/08/16 00:09:39;;;;;;;4.22;3.55;;;13.00;99.90;;;;;;4975259;28;20042;-83
2023/08/16 00:12:06;;;;;;;3.90;3.40;;;13.00;99.90;;;;;;4975392;28;20054;-83
2023/08/16 00:14:32;;;;;;;4.30;3.55;;;13.00;99.90;;;;;;4947594;28;20057;-83
2023/08/16 00:16:57;;;;;;;5.45;3.70;;;13.00;99.90;;;;;;4962079;28;20093;-83
2023/08/16 00:19:24;;;;;;;5.53;3.50;;;13.00;99.90;;;;;;4962613;28;20046;-83
2023/08/16 00:21:50;;;;;;;4.90;2.17;;;12.90;99.90;;;;;;4947374;28;20046;-83
2023/08/16 00:24:16;;;;;;;4.15;3.10;;;12.90;99.90;;;;;;4979069;28;20397;-83
2023/08/16 00:26:41;;;;;;;3.90;2.53;;;12.90;99.90;;;;;;4945552;28;20129;-83
2023/08/16 00:29:07;;;;;;;5.38;3.13;;;12.80;99.90;;;;;;4962869;28;20042;-83
2023/08/16 00:31:32;;;;;;;3.60;3.08;;;12.90;99.90;;;;;;4959159;28;20042;-83
2023/08/16 00:33:58;;;;;;;3.03;2.60;;;12.80;99.90;;;;;;4960353;28;20046;-84
2023/08/16 00:36:24;;;;;;;5.90;3.60;;;12.70;99.90;;;;;;4959346;28;20062;-84
2023/08/16 00:38:49;;;;;;;27.38;3.83;;;12.60;99.90;;;;;;4959668;28;20034;-83
2023/08/16 00:41:15;;;;;;;11.82;3.08;;;12.50;99.90;;;;;;4961373;28;20285;-83
2023/08/16 00:43:41;;;;;;;13.90;3.40;;;12.40;99.90;;;;;;4977337;28;20572;-84
2023/08/16 00:46:11;;;;;;;20.80;3.40;;;12.60;99.90;;;;;;4977088;28;20034;-83
2023/08/16 00:48:38;;;;;;;10.27;2.83;;;12.40;99.90;;;;;;4958806;28;20185;-83
2023/08/16 00:51:06;;;;;;;15.13;3.38;;;12.20;99.90;;;;;;4944178;28;20034;-84
2023/08/16 00:53:32;;;;;;;3.22;2.13;;;12.30;99.90;;;;;;4946522;28;20038;-83
2023/08/16 00:55:58;;;;;;;2.50;2.10;;;12.30;99.90;;;;;;4960148;28;20042;-83
2023/08/16 00:58:26;;;;;;;3.35;2.10;;;12.20;99.90;;;;;;4960702;28;20481;-84
2023/08/16 01:00:52;;;;;;;3.35;2.72;;;12.20;99.90;;;;;;4957549;28;20129;-84
2023/08/16 01:03:17;;;;;;;3.83;3.40;;;12.30;99.90;;;;;;4963672;28;20204;-83
2023/08/16 01:05:43;;;;;;;7.25;3.67;;;12.30;99.90;;;;;;4975305;28;20233;-83
2023/08/16 01:08:12;;;;;;;4.13;3.33;;;12.30;99.90;;;;;;4968485;28;20514;-83
2023/08/16 01:10:42;;;;;;;5.18;3.85;;;12.30;99.90;;;;;;4955741;28;20059;-83
2023/08/16 01:13:13;;;;;;;6.60;3.75;;;12.20;99.90;;;;;;4941419;28;20047;-83
2023/08/16 01:15:44;;;;;;;5.88;4.20;;;12.30;99.90;;;;;;4940781;28;20153;-83
2023/08/16 01:18:11;;;;;;;3.90;3.00;;;12.20;99.90;;;;;;4959412;28;20129;-84
2023/08/16 01:20:39;;;;;;;3.22;2.70;;;12.10;99.90;;;;;;4954971;28;20097;-84
2023/08/16 01:23:22;;;;;;;4.22;2.88;;;12.10;99.90;;;;;;4957133;28;20038;-83
2023/08/16 01:25:56;;;;;;;4.47;3.03;;;12.10;99.90;;;;;;4939651;28;20520;-83
2023/08/16 01:28:23;;;;;;;;;;;12.10;99.90;;;;;;4959565;28;20532;-83
2023/08/16 01:30:54;;;;;;;4.30;3.10;;;12.10;99.90;;;;;;4954721;28;20366;-83
2023/08/16 01:33:19;;;;;;;6.35;4.43;;;12.00;99.90;;;;;;4955782;28;20046;-83
2023/08/16 01:35:45;;;;;;;5.03;3.90;;;12.00;99.90;;;;;;4958421;28;20053;-83
2023/08/16 01:38:13;;;;;;;6.28;3.92;;;12.00;99.90;;;;;;4942171;28;20190;-83
2023/08/16 01:40:51;;;;;;;4.78;4.20;;;12.00;99.90;;;;;;4954040;28;20103;-83
2023/08/16 01:43:18;;;;;;;4.60;3.97;;;11.90;99.90;;;;;;4971458;28;20214;-83
2023/08/16 01:45:49;;;;;;;3.80;2.50;;;11.90;99.90;;;;;;4939381;28;20465;-83
2023/08/16 01:48:15;;;;;;;2.85;2.10;;;11.80;99.90;;;;;;4957953;28;20154;-84
2023/08/16 01:50:41;;;;;;;4.72;2.40;;;11.70;99.90;;;;;;4953079;28;20065;-83
2023/08/16 01:53:08;;;;;;;2.72;2.38;;;11.70;99.90;;;;;;4953714;28;20057;-84
2023/08/16 01:55:33;;;;;;;5.20;4.25;;;11.70;99.90;;;;;;4956495;28;20065;-83
2023/08/16 01:58:00;;;;;;;5.70;3.92;;;11.70;99.90;;;;;;4958652;28;20046;-83
2023/08/16 02:00:25;;;;;;;4.38;3.95;;;11.70;99.90;;;;;;4952634;28;20053;-84
2023/08/16 02:02:51;;;;;;;6.63;4.40;;;11.70;99.90;;;;;;4972440;28;20051;-83
2023/08/16 02:05:17;;;;;;;6.22;4.03;;;11.70;99.90;;;;;;4954542;28;20124;-83
2023/08/16 02:07:43;;;;;;;5.63;4.45;;;11.70;99.90;;;;;;4969523;28;20145;-83
2023/08/16 02:10:09;;;;;;;5.75;4.40;;;11.80;99.90;;;;;;4971768;28;20181;-86
2023/08/16 02:12:34;;;;;;;5.43;3.20;;;11.70;99.90;;;;;;4960553;28;20190;-86
2023/08/16 02:15:00;;;;;;;6.07;3.80;;;11.60;99.90;;;;;;4955351;28;20551;-88
2023/08/16 02:17:26;;;;;;;5.22;3.90;;;11.70;99.90;;;;;;4961308;28;20245;-88
2023/08/16 02:19:52;;;;;;;6.13;4.60;;;11.60;99.90;;;;;;4957546;28;20523;-87
2023/08/16 02:22:21;;;;;;;7.22;5.57;;;11.70;99.90;;;;;;4976914;28;20105;-86
2023/08/16 02:24:46;;;;;;;7.00;5.63;;;11.70;99.90;;;;;;4957470;28;20434;-87
2023/08/16 02:27:12;;;;;;;8.50;6.03;;;11.80;99.90;;;;;;4959405;28;20133;-87
2023/08/16 02:29:37;;;;;;;5.40;4.90;;;11.70;99.90;;;;;;4942878;28;20046;-86
2023/08/16 02:32:03;;;;;;;6.80;5.30;;;11.70;99.90;;;;;;4957593;28;20053;-86
2023/08/16 02:34:29;;;;;;;11.77;5.57;;;11.60;99.90;;;;;;4977387;28;20097;-87
2023/08/16 02:36:55;;;;;;;7.50;4.97;;;11.70;99.90;;;;;;4946605;28;20377;-87
2023/08/16 02:39:23;;;;;;;8.13;5.70;;;11.70;99.90;;;;;;4963679;28;20448;-87
2023/08/16 02:41:50;;;;;;;7.03;5.80;;;11.70;99.90;;;;;;4979936;28;20113;-87
2023/08/16 02:44:16;;;;;;;5.80;3.97;;;11.70;99.90;;;;;;4947657;28;20043;-90
2023/08/16 02:46:42;;;;;;;6.22;5.00;;;11.60;99.90;;;;;;4962977;28;20570;-87
2023/08/16 02:49:07;;;;;;;6.32;4.97;;;11.60;99.90;;;;;;4962628;28;20461;-87
2023/08/16 02:51:33;;;;;;;6.50;4.78;;;11.60;99.90;;;;;;4961563;28;20706;-88
2023/08/16 02:53:58;;;;;;;13.10;5.32;;;11.60;99.90;;;;;;4963631;28;20046;-85
2023/08/16 02:56:24;;;;;;;7.35;4.88;;;11.60;99.90;;;;;;4966286;28;20164;-86
2023/08/16 02:58:50;;;;;;;9.70;5.07;;;11.60;99.90;;;;;;4947651;28;20564;-86
2023/08/16 03:01:15;;;;;;;16.33;8.00;;;11.60;99.90;;;;;;4961336;28;20038;-87
2023/08/16 03:03:42;;;;;;;8.50;4.72;;;11.60;99.90;;;;;;4967664;28;20489;-87
2023/08/16 03:06:08;;;;;;;5.45;3.58;;;11.50;99.90;;;;;;4980470;28;20093;-86
2023/08/16 03:08:33;;;;;;;4.65;3.35;;;11.40;99.90;;;;;;4964228;28;20046;-88
2023/08/16 03:10:59;;;;;;;4.75;3.70;;;11.40;99.90;;;;;;4980559;28;20501;-88
2023/08/16 03:13:25;;;;;;;5.60;4.15;;;11.40;99.90;;;;;;4960778;28;20038;-87
2023/08/16 03:15:50;;;;;;;7.75;5.57;;;11.50;99.90;;;;;;4949140;28;20037;-88
2023/08/16 03:18:16;;;;;;;8.38;5.95;;;11.50;99.90;;;;;;4964396;28;20424;-88
2023/08/16 03:20:42;;;;;;;6.68;4.45;;;11.60;99.90;;;;;;4965464;28;20046;-88
2023/08/16 03:23:07;;;;;;;24.40;6.97;;;11.50;99.90;;;;;;4980271;28;20044;-87
2023/08/16 03:25:33;;;;;;;33.72;7.68;;;11.50;99.90;;;;;;4961788;28;20046;-88
2023/08/16 03:27:58;;;;;;;25.10;6.72;;;11.60;99.90;;;;;;4975850;28;20047;-88
2023/08/16 03:30:24;;;;;;;77.07;9.32;;;11.50;99.90;;;;;;4961819;28;20599;-89
2023/08/16 03:32:53;;;;;;;60.95;9.07;;;11.50;99.90;;;;;;4980900;28;20049;-88
2023/08/16 03:35:19;;;;;;;10.98;6.55;;;11.40;99.90;;;;;;4976758;28;20043;-87
2023/08/16 03:37:45;;;;;;;14.43;7.35;;;11.40;99.90;;;;;;4963044;28;20035;-88
2023/08/16 03:40:11;;;;;;;9.05;5.40;;;11.40;99.90;;;;;;4964457;28;20576;-88
2023/08/16 03:42:37;;;;;;;60.03;6.32;;;11.40;99.90;;;;;;4979999;28;20056;-89
2023/08/16 03:45:03;;;;;;;6.82;4.50;;;11.30;99.90;;;;;;4978664;28;20331;-87
2023/08/16 03:47:29;;;;;;;6.38;4.43;;;11.20;99.90;;;;;;4965741;28;20034;-88
2023/08/16 03:49:56;;;;;;;13.15;4.78;;;11.30;99.90;;;;;;4964953;28;20042;-88
2023/08/16 03:52:22;;;;;;;7.78;5.47;;;11.20;99.90;;;;;;4961809;28;20046;-88
2023/08/16 03:54:47;;;;;;;6.95;5.32;;;11.20;99.90;;;;;;4962538;28;20057;-88
2023/08/16 03:57:13;;;;;;;6.65;5.57;;;11.20;99.90;;;;;;4977557;28;20050;-88
2023/08/16 03:59:39;;;;;;;6.47;4.72;;;11.30;99.90;;;;;;4949453;28;20465;-90
2023/08/16 04:02:04;;;;;;;8.27;4.70;;;11.20;99.90;;;;;;4964613;28;20042;-88
2023/08/16 04:04:31;;;;;;;4.50;3.30;;;11.20;99.90;;;;;;4943948;28;20474;-87
2023/08/16 04:06:56;;;;;;;22.10;4.00;;;11.10;99.90;;;;;;4978244;28;20066;-87
2023/08/16 04:09:22;;;;;;;15.05;3.67;;;11.00;99.90;;;;;;4973670;28;20043;-87
2023/08/16 04:11:48;;;;;;;44.78;6.53;;;11.00;99.90;;;;;;4940085;28;20521;-87
2023/08/16 04:14:13;;;;;;;22.27;4.97;;;11.10;99.90;;;;;;4959648;28;20501;-87
2023/08/16 04:16:39;;;;;;;19.13;5.72;;;11.10;99.90;;;;;;4973317;28;20174;-87
2023/08/16 04:19:08;;;;;;;12.10;5.40;;;11.20;99.90;;;;;;4956992;28;20078;-87
2023/08/16 04:21:33;;;;;;;5.57;4.93;;;11.20;99.90;;;;;;4957457;28;20069;-87
2023/08/16 04:23:59;;;;;;;10.35;5.72;;;11.20;99.90;;;;;;4959491;28;20494;-88
2023/08/16 04:26:25;;;;;;;7.70;5.10;;;11.20;99.90;;;;;;4952871;28;20047;-88
2023/08/16 04:28:50;;;;;;;6.07;4.40;;;11.20;99.90;;;;;;4958078;28;20042;-88
2023/08/16 04:31:16;;;;;;;4.28;3.67;;;11.30;99.90;;;;;;4952665;28;20063;-87
2023/08/16 04:33:41;;;;;;;24.02;5.13;;;11.30;99.90;;;;;;4958025;28;20043;-88
2023/08/16 04:36:07;;;;;;;39.47;7.57;;;11.30;99.90;;;;;;4959631;28;20045;-87
2023/08/16 04:38:36;;;;;;;25.02;6.97;;;11.30;99.90;;;;;;4943786;28;20076;-87
2023/08/16 04:41:01;;;;;;;41.40;6.32;;;11.40;99.90;;;;;;4941134;28;20215;-88
2023/08/16 04:43:27;;;;;;;24.50;4.60;;;11.40;99.90;;;;;;4959797;28;20100;-87
2023/08/16 04:45:53;;;;;;;6.93;4.32;;;11.20;99.90;;;;;;4962053;28;20047;-87
2023/08/16 04:48:19;;;;;;;11.55;5.88;;;11.20;99.90;;;;;;4961874;28;20125;-88
2023/08/16 04:50:45;;;;;;;17.23;5.72;;;11.20;99.90;;;;;;4955506;28;20043;-87
2023/08/16 04:53:11;;;;;;;20.08;6.22;;;11.30;99.90;;;;;;4941368;28;20173;-87
2023/08/16 04:55:38;;;;;;;19.52;6.50;;;11.40;99.90;;;;;;4975239;28;20110;-88
2023/08/16 04:58:03;;;;;;;9.25;5.80;;;11.50;99.90;;;;;;4941191;28;20458;-87
2023/08/16 05:00:29;;;;;;;7.43;5.15;;;11.50;99.90;;;;;;4942764;28;20100;-87
2023/08/16 05:02:55;;;;;;;6.03;5.05;;;11.50;99.90;;;;;;4942568;28;20117;-88
2023/08/16 05:05:20;;;;;;;5.82;5.00;;;11.60;99.90;;;;;;4957949;28;20089;-88
2023/08/16 05:07:49;;;;;;;6.15;4.85;;;11.60;99.90;;;;;;4945887;28;20253;-87
2023/08/16 05:10:14;;;;;;;6.88;5.05;;;11.60;99.90;;;;;;4973863;28;20031;-88
2023/08/16 05:12:40;;;;;;;6.72;4.93;;;11.80;99.90;;;;;;4958270;28;20034;-88
2023/08/16 05:15:06;;;;;;;7.03;5.63;;;11.90;99.90;;;;;;4955582;28;20051;-88
2023/08/16 05:17:32;;;;;;;6.47;5.30;;;12.00;99.90;;;;;;4941919;28;20140;-87
2023/08/16 05:19:58;;;;;;;5.88;4.50;;;12.20;99.90;;;;;;4957452;28;20062;-87
2023/08/16 05:22:24;;;;;;;7.53;5.07;;;12.30;99.90;;;;;;4956588;28;20057;-87
2023/08/16 05:24:50;;;;;;;6.80;5.45;;;12.40;99.90;;;;;;4955816;28;20055;-89
2023/08/16 05:27:16;;;;;;;6.90;5.50;;;12.50;99.90;;;;;;4953151;28;20052;-87
2023/08/16 05:29:42;;;;;;;6.63;5.60;;;12.60;99.90;;;;;;4942150;28;20419;-89
2023/08/16 05:32:08;;;;;;;5.85;5.00;;;12.70;99.90;;;;;;4943729;28;20043;-88
2023/08/16 05:34:35;;;;;;;7.53;5.70;;;12.80;99.90;;;;;;4971387;28;20288;-87
2023/08/16 05:37:00;;;;;;;8.18;5.18;;;13.00;99.90;;;;;;4941804;28;20043;-88
2023/08/16 05:39:26;;;;;;;6.43;5.20;;;13.00;99.90;;;;;;4957659;28;20042;-88
2023/08/16 05:41:52;;;;;;;7.78;5.80;;;13.20;99.90;;;;;;4956508;28;20198;-87
2023/08/16 05:44:17;;;;;;;7.32;5.25;;;13.30;99.90;;;;;;4957871;28;20053;-88
2023/08/16 05:46:43;;;;;;;7.28;5.88;;;13.50;99.90;;;;;;4958070;28;20046;-89
2023/08/16 05:49:10;;;;;;;6.78;5.95;;;13.60;99.90;;;;;;4974787;28;20035;-87
2023/08/16 05:51:35;;;;;;;6.28;5.25;;;13.80;99.90;;;;;;4956028;28;20533;-88
2023/08/16 05:54:02;;;;;;;7.60;5.90;;;13.70;99.90;;;;;;4959266;28;20298;-88
2023/08/16 05:56:28;;;;;;;9.68;6.25;;;13.90;99.90;;;;;;4960111;28;20443;-88
2023/08/16 05:58:54;;;;;;;7.53;5.80;;;14.10;99.90;;;;;;4958351;28;20046;-88
2023/08/16 06:01:19;;;;;;;7.25;5.93;;;14.30;99.90;;;;;;4937776;28;20047;-88
2023/08/16 06:03:45;;;;;;;10.77;6.32;;;14.50;99.90;;;;;;4958173;28;20394;-88
2023/08/16 06:06:10;;;;;;;10.65;6.78;;;14.70;99.90;;;;;;4956481;28;20042;-88
2023/08/16 06:08:36;;;;;;;11.90;8.30;;;14.80;99.90;;;;;;4962336;28;20264;-88
2023/08/16 06:11:02;;;;;;;14.30;9.32;;;15.00;99.90;;;;;;4978566;28;20042;-87
2023/08/16 06:13:28;;;;;;;11.02;7.47;;;15.10;99.90;;;;;;4977576;28;20128;-87
2023/08/16 06:15:53;;;;;;;11.30;7.60;;;15.20;99.90;;;;;;4962296;28;20057;-88
2023/08/16 06:18:19;;;;;;;9.80;7.38;;;15.40;99.90;;;;;;4967306;28;20039;-87
2023/08/16 06:20:45;;;;;;;12.05;7.40;;;15.50;99.90;;;;;;4964203;28;20417;-87
2023/08/16 06:23:10;;;;;;;13.43;7.30;;;15.70;99.90;;;;;;4965359;28;20041;-87
2023/08/16 06:25:36;;;;;;;10.27;7.32;;;15.60;99.90;;;;;;4964082;28;20117;-87
2023/08/16 06:28:03;;;;;;;9.77;7.18;;;15.70;99.90;;;;;;4947080;28;20049;-87
2023/08/16 06:30:28;;;;;;;11.05;7.20;;;15.70;99.90;;;;;;4981000;28;20133;-87
2023/08/16 06:32:54;;;;;;;9.43;7.20;;;15.80;99.90;;;;;;4964965;28;20465;-87
2023/08/16 06:35:20;;;;;;;8.82;7.25;;;15.80;99.90;;;;;;4966688;28;20189;-87
2023/08/16 06:37:46;;;;;;;9.15;6.97;;;15.90;99.90;;;;;;4944147;28;20050;-87
2023/08/16 06:40:12;;;;;;;8.32;6.40;;;15.80;99.90;;;;;;4960239;28;20046;-87
2023/08/16 06:42:41;;;;;;;9.00;6.45;;;15.90;99.90;;;;;;4981147;28;20030;-87
2023/08/16 06:45:08;;;;;;;8.02;6.80;;;15.80;99.90;;;;;;4950785;28;20045;-88
2023/08/16 06:47:34;;;;;;;9.00;6.88;;;15.80;99.90;;;;;;4967633;28;20176;-88
2023/08/16 06:49:59;;;;;;;9.90;6.35;;;15.80;99.90;;;;;;4960361;28;20141;-87
2023/08/16 06:52:28;;;;;;;10.00;6.65;;;15.80;99.90;;;;;;4965694;28;20350;-87
2023/08/16 06:54:54;;;;;;;8.55;6.95;;;15.80;99.90;;;;;;4949251;28;20062;-86
2023/08/16 06:57:20;;;;;;;8.88;6.65;;;15.90;99.90;;;;;;4980773;28;20074;-87
2023/08/16 06:59:45;;;;;;;7.93;6.50;;;15.90;99.90;;;;;;4947029;28;20085;-88
2023/08/16 07:02:11;;;;;;;7.25;6.13;;;15.90;99.90;;;;;;4958913;28;20161;-88
2023/08/16 07:04:38;;;;;;;8.40;6.35;;;15.90;99.90;;;;;;4959227;28;20045;-88
2023/08/16 07:07:07;;;;;;;15.52;7.43;;;16.10;99.90;;;;;;4962367;28;20137;-88
2023/08/16 07:09:33;;;;;;;9.10;7.40;;;16.10;99.90;;;;;;4965124;28;20038;-88
2023/08/16 07:11:59;;;;;;;10.65;8.00;;;16.30;99.90;;;;;;4964614;28;20355;-89
2023/08/16 07:14:24;;;;;;;11.68;8.02;;;16.60;99.90;;;;;;4977279;28;20121;-88
2023/08/16 07:16:51;;;;;;;10.45;7.28;;;16.60;99.90;;;;;;4964025;28;20573;-88
2023/08/16 07:19:17;;;;;;;13.07;8.07;;;16.90;99.90;;;;;;4944298;28;20046;-88
2023/08/16 07:21:43;;;;;;;12.13;7.82;;;17.00;99.90;;;;;;4979699;28;20030;-88
2023/08/16 07:24:11;;;;;;;9.43;7.25;;;17.10;99.90;;;;;;4962250;28;20524;-89
2023/08/16 07:26:38;;;;;;;10.25;7.18;;;17.10;99.90;;;;;;4969550;28;20412;-88
2023/08/16 07:29:03;;;;;;;10.20;7.72;;;17.20;99.90;;;;;;4963437;28;20438;-87
2023/08/16 07:31:29;;;;;;;10.07;7.47;;;17.30;99.90;;;;;;4948829;28;20050;-87
2023/08/16 07:33:55;;;;;;;10.65;7.40;;;17.40;99.90;;;;;;4962965;28;20045;-88
2023/08/16 07:36:20;;;;;;;10.02;7.80;;;17.50;99.90;;;;;;4960445;28;20187;-88
2023/08/16 07:38:47;;;;;;;8.85;6.32;;;17.60;99.90;;;;;;4961958;28;20062;-87
2023/08/16 07:41:15;;;;;;;9.20;6.63;;;17.40;99.90;;;;;;4976756;28;20121;-88
2023/08/16 07:43:41;;;;;;;8.85;6.50;;;17.70;99.90;;;;;;4962296;28;20482;-89
2023/08/16 07:46:07;;;;;;;8.18;6.55;;;17.90;99.90;;;;;;4947456;28;20120;-88
2023/08/16 07:48:32;;;;;;;8.82;5.30;;;18.10;99.90;;;;;;4966382;28;20371;-87
2023/08/16 07:50:58;;;;;;;6.93;4.40;;;18.10;99.90;;;;;;4958448;28;20325;-87
2023/08/16 07:53:24;;;;;;;8.80;5.00;;;18.30;99.90;;;;;;4948785;28;20054;-87
2023/08/16 07:55:49;;;;;;;5.68;3.85;;;18.50;99.90;;;;;;4981654;28;20065;-86
2023/08/16 07:58:15;;;;;;;7.15;4.10;;;18.60;99.90;;;;;;4965303;28;20414;-87
2023/08/16 08:00:42;;;;;;;6.80;3.95;;;18.70;99.90;;;;;;4942340;28;20047;-88
2023/08/16 08:03:09;;;;;;;4.80;3.15;;;18.90;99.90;;;;;;4981716;28;20030;-87
2023/08/16 08:05:36;;;;;;;6.68;4.32;;;19.00;99.90;;;;;;4978258;28;20043;-87
2023/08/16 08:08:04;;;;;;;4.85;3.47;;;18.50;99.90;;;;;;4964976;28;20057;-87
2023/08/16 08:10:31;;;;;;;4.47;2.63;;;18.90;99.90;;;;;;4964192;28;20050;-88
2023/08/16 08:12:58;;;;;;;4.70;2.97;;;18.70;99.90;;;;;;4943182;28;20649;-87
2023/08/16 08:15:23;;;;;;;4.55;2.72;;;18.90;99.90;;;;;;4975737;28;20093;-88
2023/08/16 08:17:49;;;;;;;5.45;3.00;;;19.00;99.90;;;;;;4965334;28;20042;-88
2023/08/16 08:20:15;;;;;;;5.25;2.85;;;19.00;99.90;;;;;;4961003;28;20779;-88
2023/08/16 08:22:41;;;;;;;5.15;2.30;;;19.10;99.90;;;;;;4964209;28;20409;-87
2023/08/16 08:25:08;;;;;;;4.57;2.70;;;19.20;99.90;;;;;;4978924;28;20108;-87
2023/08/16 08:27:33;;;;;;;5.25;2.30;;;19.60;99.90;;;;;;4963460;28;20038;-88
2023/08/16 08:29:59;;;;;;;6.15;2.40;;;19.50;99.90;;;;;;4961838;28;20093;-88
2023/08/16 08:32:25;;;;;;;3.45;2.35;;;19.60;99.90;;;;;;4976050;28;20476;-89
2023/08/16 08:34:50;;;;;;;4.30;2.05;;;19.60;99.90;;;;;;4961226;28;20042;-87
2023/08/16 08:37:16;;;;;;;3.25;2.40;;;19.70;99.90;;;;;;4962528;28;20266;-89
2023/08/16 08:39:42;;;;;;;4.93;2.70;;;19.90;99.90;;;;;;4979946;28;20501;-89
2023/08/16 08:42:09;;;;;;;6.30;2.55;;;19.70;99.90;;;;;;4976124;28;20038;-88
2023/08/16 08:44:37;;;;;;;3.30;2.00;;;20.00;99.90;;;;;;4949031;28;20108;-89
2023/08/16 08:47:06;;;;;;;5.68;2.53;;;20.30;99.90;;;;;;4977673;28;20039;-89
2023/08/16 08:49:34;;;;;;;2.60;2.10;;;20.60;99.90;;;;;;4960637;28;20053;-89
2023/08/16 08:52:05;;;;;;;5.03;2.50;;;20.60;99.90;;;;;;4964353;28;20089;-89
2023/08/16 08:54:34;;;;;;;5.03;2.35;;;19.80;99.90;;;;;;4962231;28;20074;-89
2023/08/16 08:56:59;;;;;;;5.10;2.20;;;19.80;99.90;;;;;;4964219;28;20074;-90
2023/08/16 08:59:27;;;;;;;3.65;1.92;;;19.80;99.90;;;;;;4949076;28;20104;-89
2023/08/16 09:01:54;;;;;;;3.70;2.33;;;20.00;99.90;;;;;;4959379;28;20070;-89
2023/08/16 09:04:21;;;;;;;5.25;2.33;;;20.10;99.90;;;;;;4962436;28;20065;-88
2023/08/16 09:06:48;;;;;;;3.65;1.80;;;20.60;99.90;;;;;;4948937;28;20366;-90
2023/08/16 09:09:17;;;;;;;6.25;2.17;;;20.60;99.90;;;;;;4950350;28;20121;-87
2023/08/16 09:11:43;;;;;;;4.65;2.00;;;20.60;99.90;;;;;;4974863;28;20038;-90
2023/08/16 09:14:09;;;;;;;5.00;2.08;;;20.80;99.90;;;;;;4965857;28;20116;-90
2023/08/16 09:16:34;;;;;;;4.88;2.30;;;21.00;99.90;;;;;;4959283;28;20034;-89
2023/08/16 09:19:12;;;;;;;2.38;1.58;;;21.30;99.90;;;;;;4967632;28;20042;-90
2023/08/16 09:21:38;;;;;;;6.40;2.17;;;21.40;99.90;;;;;;4963111;28;20046;-89
2023/08/16 09:24:06;;;;;;;2.80;1.70;;;21.60;99.90;;;;;;4962441;28;20034;-90
2023/08/16 09:26:31;;;;;;;3.70;1.75;;;21.60;99.90;;;;;;4962919;28;20316;-88
2023/08/16 09:29:04;;;;;;;3.95;1.70;;;21.90;99.90;;;;;;4963812;28;20761;-88
2023/08/16 09:31:41;;;;;;;2.47;1.55;;;22.10;99.90;;;;;;4967155;28;20042;-88
2023/08/16 09:34:07;;;;;;;3.45;1.50;;;22.00;99.90;;;;;;4963773;28;20192;-90
2023/08/16 09:36:37;;;;;;;3.40;2.08;;;22.30;99.90;;;;;;4964007;28;20125;-90
2023/08/16 09:39:09;;;;;;;1.65;1.45;;;22.20;99.90;;;;;;4978257;28;20045;-88
2023/08/16 09:41:36;;;;;;;2.85;1.63;;;22.20;99.90;;;;;;4963749;28;20042;-91
2023/08/16 09:44:06;;;;;;;3.60;1.70;;;22.50;99.90;;;;;;4962948;28;20034;-89
2023/08/16 09:46:38;;;;;;;2.65;1.38;;;22.10;99.90;;;;;;4948244;28;20253;-88
2023/08/16 09:49:09;;;;;;;3.67;1.70;;;22.50;99.90;;;;;;4949899;28;20216;-88
2023/08/16 09:51:37;;;;;;;3.78;1.30;;;22.30;99.90;;;;;;4961522;28;20051;-89
2023/08/16 09:54:14;;;;;;;3.20;1.30;;;22.40;99.90;;;;;;4961071;28;20046;-89
2023/08/16 09:56:41;;;;;;;2.07;1.27;;;22.30;99.90;;;;;;4964985;28;20157;-89
2023/08/16 09:59:08;;;;;;;2.17;1.20;;;22.30;99.90;;;;;;4960792;28;20542;-89
2023/08/16 10:01:38;;;;;;;2.95;1.30;;;22.40;99.90;;;;;;4944844;28;20532;-90
2023/08/16 10:04:06;;;;;;;2.85;1.63;;;22.30;99.90;;;;;;4977278;28;20141;-89
2023/08/16 10:06:36;;;;;;;4.85;1.45;;;22.60;99.90;;;;;;4961452;28;20149;-89
2023/08/16 10:09:10;;;;;;;3.65;1.42;;;22.70;99.90;;;;;;4961804;28;20074;-89
2023/08/16 10:11:37;;;;;;;2.03;1.40;;;23.00;99.90;;;;;;4964093;28;20046;-89
2023/08/16 10:14:06;;;;;;;2.28;1.55;;;22.80;99.90;;;;;;4977530;28;20201;-90
2023/08/16 10:16:36;;;;;;;3.05;1.30;;;22.90;99.90;;;;;;4981235;28;20415;-89
2023/08/16 10:19:03;;;;;;;3.92;1.40;;;23.10;99.90;;;;;;4951837;28;20089;-89
2023/08/16 10:21:32;;;;;;;2.47;1.23;;;23.40;99.90;;;;;;4959505;28;20043;-88
2023/08/16 10:23:59;;;;;;;3.60;1.30;;;23.60;99.90;;;;;;4947924;28;20074;-89
2023/08/16 10:26:30;;;;;;;4.35;1.80;;;23.90;99.90;;;;;;4974894;28;20034;-90
2023/08/16 10:29:01;;;;;;;2.08;1.67;;;23.80;99.90;;;;;;4963883;28;20117;-89
2023/08/16 10:31:34;;;;;;;1.77;1.00;;;23.20;99.90;;;;;;4963294;28;20112;-89
2023/08/16 10:34:04;;;;;;;3.33;1.10;;;22.30;99.90;;;;;;4942900;28;20441;-90
2023/08/16 10:36:30;;;;;;;3.17;1.48;;;22.00;99.90;;;;;;4963757;28;20042;-89
2023/08/16 10:38:56;;;;;;;4.18;1.60;;;22.20;99.90;;;;;;4962587;28;20048;-90
2023/08/16 10:41:22;;;;;;;2.55;1.50;;;22.40;99.90;;;;;;4964333;28;20089;-90
2023/08/16 10:43:54;;;;;;;3.72;1.50;;;23.00;99.90;;;;;;4944731;28;20038;-89
2023/08/16 10:46:27;;;;;;;2.45;1.50;;;23.30;99.90;;;;;;4974522;28;20149;-90
2023/08/16 10:49:01;;;;;;;2.53;1.17;;;23.50;99.90;;;;;;4961278;28;20294;-87
2023/08/16 10:51:26;;;;;;;1.48;1.33;;;23.40;99.90;;;;;;4961154;28;20124;-89
2023/08/16 10:53:56;;;;;;;1.95;1.20;;;22.90;99.90;;;;;;4948943;28;20528;-88
2023/08/16 10:56:22;;;;;;;2.65;1.42;;;22.40;99.90;;;;;;4978551;28;20034;-90
2023/08/16 10:58:52;;;;;;;3.13;1.63;;;22.40;99.90;;;;;;4943628;28;20068;-91
2023/08/16 11:01:19;;;;;;;3.10;1.15;;;22.00;99.90;;;;;;4983461;28;20046;-90
2023/08/16 11:03:47;;;;;;;3.55;1.60;;;22.70;99.90;;;;;;4968003;28;20093;-89
2023/08/16 11:06:14;;;;;;;3.30;1.30;;;23.30;99.90;;;;;;4951977;28;20057;-88
2023/08/16 11:08:44;;;;;;;2.85;1.30;;;23.10;99.90;;;;;;4968017;28;20057;-88
2023/08/16 11:11:12;;;;;;;2.15;1.45;;;22.70;99.90;;;;;;4970527;28;20041;-90
2023/08/16 11:13:40;;;;;;;2.97;1.60;;;22.30;99.90;;;;;;4964786;28;20069;-89
2023/08/16 11:16:09;;;;;;;2.80;1.60;;;22.40;99.90;;;;;;4982968;28;20049;-89
2023/08/16 11:18:41;;;;;;;3.35;1.38;;;22.70;99.90;;;;;;4962272;28;20408;-90
2023/08/16 11:21:07;;;;;;;3.05;1.73;;;22.60;99.90;;;;;;4968454;28;20516;-88
2023/08/16 11:23:37;;;;;;;3.05;1.90;;;22.40;99.90;;;;;;4966230;28;20034;-89
2023/08/16 11:26:06;;;;;;;2.60;1.90;;;22.70;99.90;;;;;;4952052;28;20039;-89
2023/08/16 11:28:34;;;;;;;3.15;1.80;;;23.00;99.90;;;;;;4983266;28;20052;-89
2023/08/16 11:31:04;;;;;;;2.92;1.60;;;23.80;99.90;;;;;;4960044;28;20037;-91
2023/08/16 11:33:35;;;;;;;2.60;1.35;;;24.20;99.90;;;;;;4950718;28;20213;-90
2023/08/16 11:36:02;;;;;;;3.38;1.50;;;24.50;99.90;;;;;;4965744;28;20096;-89
2023/08/16 11:38:29;;;;;;;3.63;1.60;;;24.30;99.90;;;;;;4964294;28;20042;-90
2023/08/16 11:40:55;;;;;;;5.72;2.28;;;24.30;99.90;;;;;;4951505;28;20053;-90
2023/08/16 11:43:35;;;;;;;3.92;1.55;;;24.00;99.90;;;;;;4967552;28;20039;-90
2023/08/16 11:46:02;;;;;;;1.98;1.50;;;24.40;99.90;;;;;;4945039;28;20061;-88
2023/08/16 11:48:29;;;;;;;2.85;1.40;;;24.30;99.90;;;;;;4968087;28;20602;-87
2023/08/16 11:50:58;;;;;;;3.25;1.63;;;24.30;99.90;;;;;;4980695;28;20039;-90
2023/08/16 11:53:33;;;;;;;2.97;1.35;;;24.50;99.90;;;;;;4965729;28;20109;-89
2023/08/16 11:56:00;;;;;;;2.33;1.75;;;24.30;99.90;;;;;;4949155;28;20066;-84
2023/08/16 11:58:26;;;;;;;2.85;1.58;;;24.80;99.90;;;;;;4947237;28;20046;-84
2023/08/16 12:00:53;;;;;;;1.95;1.70;;;25.00;99.90;;;;;;4960035;28;20046;-84
2023/08/16 12:03:19;;;;;;;2.83;1.70;;;25.70;99.90;;;;;;4964568;28;20062;-83
2023/08/16 12:05:49;;;;;;;4.70;1.60;;;26.00;99.90;;;;;;4944142;28;20062;-84
2023/08/16 12:08:20;;;;;;;1.50;1.35;;;26.40;99.90;;;;;;4947946;28;20050;-84
2023/08/16 12:10:56;;;;;;;2.53;1.58;;;26.50;99.90;;;;;;4951923;28;20382;-84
2023/08/16 12:13:22;;;;;;;3.85;1.70;;;25.80;99.90;;;;;;4946931;28;20154;-84
2023/08/16 12:15:49;;;;;;;2.53;1.60;;;26.10;99.90;;;;;;4982346;28;20046;-84
2023/08/16 12:18:15;;;;;;;4.18;1.42;;;26.60;99.90;;;;;;4948443;28;20046;-84
2023/08/16 12:20:41;;;;;;;1.88;1.30;;;26.80;99.90;;;;;;4959941;28;20417;-84
2023/08/16 12:23:08;;;;;;;1.75;1.25;;;27.10;99.90;;;;;;4962556;28;20042;-84
2023/08/16 12:25:35;;;;;;;2.10;1.10;;;26.60;99.90;;;;;;4961975;28;20050;-84
2023/08/16 12:28:01;;;;;;;3.08;1.20;;;26.60;99.90;;;;;;4956908;28;20429;-84
2023/08/16 12:30:28;;;;;;;3.28;1.55;;;26.80;99.90;;;;;;4963021;28;20121;-84
2023/08/16 12:33:00;;;;;;;2.22;1.38;;;25.90;99.90;;;;;;4974261;28;20081;-84
2023/08/16 12:35:26;;;;;;;1.75;1.42;;;25.70;99.90;;;;;;4946491;28;20579;-84
2023/08/16 12:37:51;;;;;;;2.55;1.30;;;26.50;99.90;;;;;;4979041;28;20156;-84
2023/08/16 12:40:17;;;;;;;1.73;0.85;;;26.30;1.00;;;;;;4945816;28;20048;-84
2023/08/16 12:42:43;;;;;;;2.45;1.02;;;26.20;78.50;;;;;;4947561;28;20042;-84
2023/08/16 12:45:11;;;;;;;3.78;1.05;;;26.50;1.00;;;;;;4963635;28;20042;-83